Current Conditions
Partly Cloudy
Conditions



Pressure
29.88 (inHG) - 1011.92 (mb)
Visibility

10.0 (km) - 6.2 (miles)
Temperature
27  °C
Temperature
16  °C
Dewpoint
51  %
 Humidity
Wind Speed
11  km/h
6  kts
7  mph
3.1  m/s
Wind Direction
N
45°
E
90°
135°
S
180°
225°
W
270°
315°
 160°

South South
East
Airport Data
LIPI
Rivolto Air Base
Metar :LIPI 271655Z 16006KT 9999 FEW040 27/16 Q1012 RMK FEW VIS MIN 9999 WIND THR06 20008KT WIND THR24 16006KT BLU
Fri 27th May 18:55 pm
Raw Metar Info
Raw METAR is the most common format in the world for the transmission of observational weather data. It is highly standardized through the International Civil Aviation Organization (ICAO), which allows it to be understood throughout most of the world.
API Info
Data Provided by
https://www.checkwx.com/weather/LIPI

Aviation Weather providing METAR, TAF, AIRMET, SIGMET and OUTLOOK Weather Reports
© Info
CSS/SVG/PHP scripts were developed by weather34 for use in the weather34 template © 2015-2022

Guide Info provided by Metar-Wikipedia